Time;durP1;ratioP1;P1;durP2;ratioP2;P2;SDS_P1;SDS_P2;PMS_P1;PMS_P2;Temp;Humidity;BMP_temperature;BMP_pressure;BME280_temperature;BME280_humidity;BME280_pressure;Samples;Min_cycle;Max_cycle;Signal;HPM_P1;HPM_P2
2023/06/22 00:00:52;;;;;;;13.02;6.18;;;22.60;99.90;;;;;;4953821;28;20391;-83
2023/06/22 00:03:19;;;;;;;12.02;5.95;;;22.70;99.90;;;;;;4976462;28;20424;-83
2023/06/22 00:05:45;;;;;;;12.95;6.80;;;22.70;99.90;;;;;;4967851;28;20388;-83
2023/06/22 00:08:14;;;;;;;12.63;6.50;;;22.70;99.90;;;;;;4975192;28;20403;-83
2023/06/22 00:10:42;;;;;;;12.30;6.30;;;22.80;99.90;;;;;;4974915;28;20409;-83
2023/06/22 00:13:09;;;;;;;12.70;5.60;;;22.80;24.00;;;;;;4966729;28;20409;-83
2023/06/22 00:15:36;;;;;;;15.68;6.55;;;22.80;99.90;;;;;;4968252;28;20406;-83
2023/06/22 00:18:02;;;;;;;12.73;5.80;;;22.70;99.90;;;;;;4970095;28;20424;-82
2023/06/22 00:20:28;;;;;;;13.10;6.72;;;22.80;52.50;;;;;;4968955;28;20413;-83
2023/06/22 00:22:55;;;;;;;16.20;5.90;;;22.80;1.00;;;;;;4969859;28;20422;-83
2023/06/22 00:25:21;;;;;;;13.38;6.70;;;22.60;99.90;;;;;;4969316;28;20869;-83
2023/06/22 00:27:46;;;;;;;14.80;7.05;;;22.40;99.90;;;;;;4965335;28;20476;-83
2023/06/22 00:30:12;;;;;;;10.70;5.73;;;22.30;99.90;;;;;;4976706;28;20849;-83
2023/06/22 00:32:38;;;;;;;16.10;7.03;;;22.30;99.90;;;;;;4984448;28;20396;-83
2023/06/22 00:35:04;;;;;;;13.30;6.83;;;22.20;99.90;;;;;;4983906;28;20405;-82
2023/06/22 00:37:29;;;;;;;16.10;7.40;;;22.10;99.90;;;;;;4982797;28;20388;-83
2023/06/22 00:39:56;;;;;;;13.85;7.10;;;22.00;99.90;;;;;;4977772;28;20763;-83
2023/06/22 00:42:22;;;;;;;15.98;8.30;;;21.80;1.00;;;;;;4960453;28;20949;-80
2023/06/22 00:44:49;;;;;;;16.05;7.68;;;21.70;1.00;;;;;;4953624;29;20421;-80
2023/06/22 00:47:17;;;;;;;14.77;6.93;;;21.60;1.00;;;;;;4977676;28;20843;-80
2023/06/22 00:49:45;;;;;;;17.35;7.63;;;21.60;1.00;;;;;;4978090;28;20415;-82
2023/06/22 00:52:13;;;;;;;13.85;6.90;;;21.70;1.00;;;;;;4978813;28;20384;-82
2023/06/22 00:54:45;;;;;;;13.10;6.63;;;21.70;1.00;;;;;;4979191;28;20424;-82
2023/06/22 00:57:15;;;;;;;15.23;8.00;;;21.40;1.00;;;;;;4965831;28;20404;-83
2023/06/22 00:59:42;;;;;;;15.15;7.00;;;21.10;1.00;;;;;;4963705;29;20724;-82
2023/06/22 01:02:09;;;;;;;14.05;7.10;;;21.10;1.00;;;;;;4972369;28;20886;-83
2023/06/22 01:04:36;;;;;;;14.52;7.20;;;21.30;1.00;;;;;;4982058;28;20597;-83
2023/06/22 01:07:22;;;;;;;18.38;8.13;;;21.20;1.00;;;;;;4982183;28;20461;-83
2023/06/22 01:10:10;;;;;;;13.38;6.65;;;21.10;1.00;;;;;;4981750;28;20388;-83
2023/06/22 01:12:44;;;;;;;14.70;7.50;;;21.10;1.00;;;;;;4981866;28;20905;-83
2023/06/22 01:15:35;;;;;;;15.00;7.28;;;21.30;1.00;;;;;;4982849;28;20415;-83
2023/06/22 01:18:04;;;;;;;12.77;7.07;;;21.40;1.00;;;;;;4950457;28;20443;-82
2023/06/22 01:20:30;;;;;;;12.93;7.00;;;21.40;1.00;;;;;;4978173;28;20399;-82
2023/06/22 01:23:10;;;;;;;15.13;7.28;;;21.40;1.00;;;;;;4980989;28;20435;-81
2023/06/22 01:25:53;;;;;;;13.03;6.40;;;21.50;1.00;;;;;;4982354;28;20887;-82
2023/06/22 01:28:44;;;;;;;12.50;6.22;;;21.50;1.00;;;;;;4963252;29;20404;-82
2023/06/22 01:31:20;;;;;;;16.98;7.43;;;21.50;1.00;;;;;;4970750;28;20410;-82
2023/06/22 01:33:51;;;;;;;12.40;7.20;;;21.60;1.00;;;;;;4981711;28;20385;-81
2023/06/22 01:36:17;;;;;;;13.77;6.90;;;21.60;1.00;;;;;;4970967;28;20592;-82
2023/06/22 01:38:44;;;;;;;17.57;7.17;;;21.60;1.00;;;;;;4957343;28;20383;-82
2023/06/22 01:41:10;;;;;;;13.13;6.47;;;21.60;1.00;;;;;;4965331;28;20403;-82
2023/06/22 01:43:36;;;;;;;15.40;6.70;;;21.60;1.00;;;;;;4981883;28;20431;-83
2023/06/22 01:46:03;;;;;;;13.20;6.38;;;21.60;1.00;;;;;;4982086;28;20408;-83
2023/06/22 01:48:29;;;;;;;17.57;6.90;;;21.50;1.00;;;;;;4982016;28;20408;-82
2023/06/22 01:50:55;;;;;;;14.82;7.22;;;21.40;1.00;;;;;;4981325;28;20492;-82
2023/06/22 01:53:24;;;;;;;13.35;7.30;;;21.30;1.00;;;;;;4963150;28;20499;-82
2023/06/22 01:55:50;;;;;;;15.80;6.20;;;21.30;1.00;;;;;;4980993;28;20442;-82
2023/06/22 01:58:16;;;;;;;14.30;6.30;;;21.20;1.00;;;;;;4980449;28;20388;-82
2023/06/22 02:00:48;;;;;;;14.23;6.90;;;21.10;1.00;;;;;;4981521;28;20396;-82
2023/06/22 02:03:21;;;;;;;12.25;6.28;;;21.00;1.00;;;;;;4981227;28;20914;-82
2023/06/22 02:05:56;;;;;;;12.37;6.93;;;20.90;1.00;;;;;;4981090;28;20503;-82
2023/06/22 02:08:27;;;;;;;15.10;7.50;;;20.90;1.00;;;;;;4966109;28;20566;-82
2023/06/22 02:10:54;;;;;;;11.38;6.05;;;21.00;1.00;;;;;;4950397;29;20425;-82
2023/06/22 02:13:20;;;;;;;13.43;6.85;;;21.00;1.00;;;;;;4963753;29;20406;-81
2023/06/22 02:15:47;;;;;;;14.02;6.97;;;21.00;1.00;;;;;;4964675;29;20401;-80
2023/06/22 02:18:13;;;;;;;14.57;6.50;;;21.00;1.00;;;;;;4986939;28;20412;-82
2023/06/22 02:20:39;;;;;;;13.60;5.80;;;20.90;1.00;;;;;;5003475;28;20485;-82
2023/06/22 02:23:06;;;;;;;14.43;6.40;;;20.90;1.00;;;;;;4988634;28;20432;-82
2023/06/22 02:25:32;;;;;;;16.60;7.00;;;20.90;1.00;;;;;;4983076;28;20428;-82
2023/06/22 02:27:58;;;;;;;14.88;6.43;;;20.90;1.00;;;;;;4981767;28;20419;-82
2023/06/22 02:30:23;;;;;;;16.03;7.23;;;20.70;1.00;;;;;;4983681;28;20400;-82
2023/06/22 02:32:49;;;;;;;13.50;7.00;;;20.60;1.00;;;;;;4986473;28;20460;-82
2023/06/22 02:35:14;;;;;;;12.70;6.83;;;20.60;1.00;;;;;;4990817;28;20416;-82
2023/06/22 02:37:43;;;;;;;16.10;6.40;;;20.70;1.00;;;;;;4990501;28;20411;-81
2023/06/22 02:40:10;;;;;;;13.57;6.93;;;20.70;1.00;;;;;;4987564;28;20403;-82
2023/06/22 02:42:36;;;;;;;13.90;6.80;;;20.80;1.00;;;;;;4984182;28;20507;-82
2023/06/22 02:45:02;;;;;;;13.77;7.00;;;20.80;1.00;;;;;;4978006;28;20491;-82
2023/06/22 02:47:28;;;;;;;13.65;6.40;;;20.90;1.00;;;;;;4983487;28;20407;-82
2023/06/22 02:49:53;;;;;;;12.23;5.90;;;20.90;1.00;;;;;;4983563;28;20404;-82
2023/06/22 02:52:19;;;;;;;12.90;6.38;;;20.90;1.00;;;;;;4982953;28;20406;-82
2023/06/22 02:54:45;;;;;;;13.07;6.70;;;20.90;1.00;;;;;;4963801;28;20467;-82
2023/06/22 02:57:13;;;;;;;15.68;6.63;;;20.80;1.00;;;;;;4980573;28;20407;-82
2023/06/22 02:59:40;;;;;;;12.73;6.32;;;20.80;1.00;;;;;;4983061;28;20404;-81
2023/06/22 03:02:06;;;;;;;14.20;6.38;;;20.90;1.00;;;;;;4982271;28;20423;-81
2023/06/22 03:04:33;;;;;;;13.13;5.63;;;20.90;1.00;;;;;;4982100;28;20404;-82
2023/06/22 03:07:01;;;;;;;12.07;6.03;;;20.90;1.00;;;;;;4982874;28;20396;-82
2023/06/22 03:09:27;;;;;;;12.73;6.72;;;20.90;1.00;;;;;;4982539;28;20467;-82
2023/06/22 03:11:54;;;;;;;12.95;5.93;;;21.00;1.00;;;;;;4965606;28;20450;-82
2023/06/22 03:14:19;;;;;;;16.77;6.40;;;21.00;1.00;;;;;;4983230;28;20415;-81
2023/06/22 03:16:45;;;;;;;12.80;5.85;;;21.00;1.00;;;;;;4978292;28;20392;-82
2023/06/22 03:19:10;;;;;;;12.10;6.07;;;20.90;1.00;;;;;;4972777;28;20436;-82
2023/06/22 03:21:38;;;;;;;13.25;6.47;;;20.90;1.00;;;;;;4987075;28;20542;-81
2023/06/22 03:24:06;;;;;;;11.90;5.45;;;20.90;1.00;;;;;;4992881;28;20479;-81
2023/06/22 03:26:31;;;;;;;12.90;6.18;;;20.90;1.00;;;;;;4993248;28;20360;-82
2023/06/22 03:28:57;;;;;;;16.63;5.47;;;20.90;1.00;;;;;;4993469;28;20404;-81
2023/06/22 03:31:23;;;;;;;10.60;5.50;;;20.80;1.00;;;;;;4983811;28;20393;-81
2023/06/22 03:33:49;;;;;;;14.00;6.07;;;20.80;1.00;;;;;;4972362;28;20441;-82
2023/06/22 03:36:19;;;;;;;14.45;6.00;;;20.90;1.00;;;;;;4969338;28;20438;-82
2023/06/22 03:38:46;;;;;;;13.73;6.18;;;20.90;1.00;;;;;;4986888;28;20389;-82
2023/06/22 03:41:11;;;;;;;13.57;6.03;;;20.90;1.00;;;;;;4962491;29;20902;-82
2023/06/22 03:43:38;;;;;;;13.97;5.83;;;20.90;1.00;;;;;;4955037;28;20465;-82
2023/06/22 03:46:04;;;;;;;14.25;6.47;;;20.90;1.00;;;;;;4968274;29;20488;-82
2023/06/22 03:48:29;;;;;;;14.63;5.50;;;21.00;1.00;;;;;;4962644;29;20398;-82
2023/06/22 03:50:55;;;;;;;12.97;5.63;;;21.10;1.00;;;;;;4964519;28;20516;-82
2023/06/22 03:53:20;;;;;;;12.30;6.30;;;21.10;1.00;;;;;;4975423;28;21095;-82
2023/06/22 03:55:50;;;;;;;14.27;6.83;;;21.10;1.00;;;;;;4952554;29;20402;-82
2023/06/22 03:58:18;;;;;;;13.63;6.40;;;21.20;1.00;;;;;;4970880;28;20413;-82
2023/06/22 04:00:48;;;;;;;11.50;5.63;;;21.20;1.00;;;;;;4973060;28;20414;-82
2023/06/22 04:03:18;;;;;;;12.73;5.95;;;21.20;1.00;;;;;;4974869;28;20493;-82
2023/06/22 04:05:43;;;;;;;15.30;6.57;;;21.20;1.00;;;;;;4955562;28;20405;-82
2023/06/22 04:08:09;;;;;;;13.88;6.20;;;21.30;1.00;;;;;;4961808;28;20405;-82
2023/06/22 04:10:35;;;;;;;15.00;7.10;;;21.30;1.00;;;;;;4958584;28;20463;-75
2023/06/22 04:13:00;;;;;;;12.82;5.95;;;21.40;1.00;;;;;;4963993;28;20407;-74
2023/06/22 04:15:26;;;;;;;13.25;6.10;;;21.50;1.00;;;;;;4958226;28;20417;-74
2023/06/22 04:17:51;;;;;;;12.60;6.20;;;21.60;1.00;;;;;;4969438;28;20416;-74
2023/06/22 04:20:17;;;;;;;16.20;5.90;;;21.70;1.00;;;;;;4965877;28;20404;-75
2023/06/22 04:22:42;;;;;;;12.20;6.07;;;21.70;1.00;;;;;;4959626;28;20523;-75
2023/06/22 04:25:08;;;;;;;11.63;6.35;;;21.80;1.00;;;;;;4959159;28;20909;-75
2023/06/22 04:27:39;;;;;;;12.50;6.40;;;21.90;1.00;;;;;;4964234;28;20716;-75
2023/06/22 04:30:07;;;;;;;13.13;6.47;;;22.10;1.00;;;;;;4961014;28;20420;-75
2023/06/22 04:32:33;;;;;;;16.70;6.82;;;22.30;99.90;;;;;;4950751;28;20420;-76
2023/06/22 04:35:02;;;;;;;13.23;6.20;;;22.30;99.90;;;;;;4963346;28;20433;-76
2023/06/22 04:37:27;;;;;;;15.43;6.55;;;22.40;99.90;;;;;;4966730;28;20902;-76
2023/06/22 04:39:53;;;;;;;15.15;6.10;;;22.40;99.90;;;;;;4960558;28;20407;-76
2023/06/22 04:42:18;;;;;;;15.90;6.10;;;22.60;99.90;;;;;;4958519;28;20444;-76
2023/06/22 04:44:44;;;;;;;13.70;6.70;;;22.70;99.90;;;;;;4955214;28;20773;-76
2023/06/22 04:47:09;;;;;;;12.85;6.80;;;22.70;98.70;;;;;;4956426;28;20477;-76
2023/06/22 04:49:37;;;;;;;13.90;7.07;;;22.70;99.90;;;;;;4957644;28;20408;-76
2023/06/22 04:52:04;;;;;;;15.80;7.27;;;22.70;80.70;;;;;;4953505;28;20393;-76
2023/06/22 04:54:32;;;;;;;17.27;6.63;;;22.80;99.90;;;;;;4953397;28;20456;-76
2023/06/22 04:57:01;;;;;;;13.43;6.30;;;22.90;59.40;;;;;;4954978;28;20489;-76
2023/06/22 04:59:29;;;;;;;14.80;6.72;;;23.00;61.80;;;;;;4969352;28;20432;-76
2023/06/22 05:02:00;;;;;;;14.48;6.97;;;23.30;1.00;;;;;;4961393;28;21196;-74
2023/06/22 05:04:27;;;;;;;15.73;6.50;;;23.80;1.00;;;;;;4964535;28;20408;-74
2023/06/22 05:06:55;;;;;;;13.98;7.18;;;24.30;99.90;;;;;;4970999;28;20396;-80
2023/06/22 05:09:21;;;;;;;12.73;6.72;;;24.80;99.90;;;;;;4971872;28;20447;-80
2023/06/22 05:11:47;;;;;;;13.13;7.15;;;25.30;1.00;;;;;;4959039;28;20419;-80
2023/06/22 05:14:12;;;;;;;16.70;7.03;;;25.90;1.00;;;;;;4976262;28;20443;-81
2023/06/22 05:16:39;;;;;;;12.07;6.20;;;26.20;99.90;;;;;;4960983;28;20394;-81
2023/06/22 05:19:04;;;;;;;16.10;6.60;;;26.30;99.90;;;;;;4970639;28;20416;-81
2023/06/22 05:21:30;;;;;;;14.40;6.70;;;26.50;99.90;;;;;;4980381;28;20458;-82
2023/06/22 05:24:00;;;;;;;11.90;5.97;;;26.60;99.90;;;;;;4978860;28;20496;-83
2023/06/22 05:26:26;;;;;;;12.98;6.18;;;26.70;99.90;;;;;;4976030;28;20400;-82
2023/06/22 05:28:52;;;;;;;13.43;6.18;;;27.20;99.90;;;;;;4972751;28;20485;-82
2023/06/22 05:31:19;;;;;;;13.23;6.68;;;27.80;1.00;;;;;;4977831;28;20404;-82
2023/06/22 05:33:46;;;;;;;14.20;5.57;;;28.20;1.00;;;;;;4963234;28;20388;-82
2023/06/22 05:36:12;;;;;;;14.20;6.30;;;28.60;1.00;;;;;;4982226;28;20387;-82
2023/06/22 05:38:38;;;;;;;12.05;6.75;;;28.70;1.00;;;;;;4983344;28;20423;-82
2023/06/22 05:41:03;;;;;;;10.82;5.85;;;28.30;1.00;;;;;;4983244;28;20397;-82
2023/06/22 05:43:29;;;;;;;11.77;5.60;;;28.20;1.00;;;;;;4983847;28;20435;-82
2023/06/22 05:45:55;;;;;;;13.50;6.15;;;28.20;1.00;;;;;;4983372;28;20476;-83
2023/06/22 05:48:20;;;;;;;13.43;5.95;;;28.60;1.00;;;;;;4983770;28;20388;-83
2023/06/22 05:50:46;;;;;;;15.48;5.90;;;29.10;1.00;;;;;;4983415;28;20777;-82
2023/06/22 05:53:11;;;;;;;14.87;6.60;;;29.40;1.00;;;;;;4982978;28;20487;-83
2023/06/22 05:55:37;;;;;;;12.93;5.10;;;29.20;1.00;;;;;;4982784;28;20392;-83
2023/06/22 05:58:05;;;;;;;15.33;6.23;;;28.50;1.00;;;;;;4983803;28;20396;-82
2023/06/22 06:00:31;;;;;;;12.85;6.25;;;27.60;1.00;;;;;;4982832;28;20400;-82
2023/06/22 06:03:03;;;;;;;12.93;6.25;;;27.20;1.00;;;;;;4983051;28;20762;-83
2023/06/22 06:05:30;;;;;;;13.93;5.75;;;27.20;1.00;;;;;;4975499;28;20463;-83
2023/06/22 06:07:56;;;;;;;12.15;5.60;;;27.60;1.00;;;;;;4963935;28;20393;-82
2023/06/22 06:10:22;;;;;;;12.85;5.95;;;27.90;1.00;;;;;;4982450;28;20403;-83
2023/06/22 06:12:47;;;;;;;14.20;6.00;;;28.50;1.00;;;;;;4979302;28;20471;-82
2023/06/22 06:15:13;;;;;;;15.23;5.10;;;29.10;1.00;;;;;;4981570;28;20471;-83
2023/06/22 06:17:52;;;;;;;12.10;5.87;;;30.20;1.00;;;;;;4981919;28;21611;-83
2023/06/22 06:20:24;;;;;;;11.25;5.40;;;30.20;1.00;;;;;;4980892;28;20412;-83
2023/06/22 06:22:50;;;;;;;12.10;5.35;;;30.70;99.90;;;;;;4978326;28;20420;-83
2023/06/22 06:25:16;;;;;;;13.23;5.70;;;30.60;99.90;;;;;;4978637;28;20404;-83
2023/06/22 06:27:46;;;;;;;11.43;5.47;;;30.50;99.90;;;;;;4978411;28;20459;-83
2023/06/22 06:30:13;;;;;;;12.68;5.63;;;30.60;99.90;;;;;;4978115;28;20428;-83
2023/06/22 06:32:39;;;;;;;13.82;5.65;;;31.10;99.90;;;;;;4960955;28;20424;-83
2023/06/22 06:35:09;;;;;;;14.10;5.80;;;31.60;99.90;;;;;;4976952;28;20388;-83
2023/06/22 06:37:43;;;;;;;10.90;5.50;;;32.00;99.90;;;;;;4977426;28;20929;-83
2023/06/22 06:40:13;;;;;;;11.45;4.88;;;32.80;99.90;;;;;;4976002;28;20822;-83
2023/06/22 06:42:44;;;;;;;13.00;5.80;;;33.00;99.90;;;;;;4976076;28;20478;-83
2023/06/22 06:45:24;;;;;;;11.57;5.45;;;33.30;99.90;;;;;;4977569;28;20396;-83
2023/06/22 06:47:52;;;;;;;16.00;5.30;;;33.80;99.90;;;;;;4977434;28;20447;-83
2023/06/22 06:50:18;;;;;;;10.60;5.63;;;34.30;99.90;;;;;;4976434;28;20388;-83
2023/06/22 06:52:44;;;;;;;11.30;5.70;;;35.20;99.90;;;;;;4975509;28;20423;-83
2023/06/22 06:55:11;;;;;;;12.20;5.45;;;35.60;99.90;;;;;;4983011;28;20400;-83
2023/06/22 06:57:37;;;;;;;12.93;5.23;;;35.20;99.90;;;;;;4980914;28;20401;-83
2023/06/22 07:00:09;;;;;;;11.65;5.25;;;35.60;99.90;;;;;;4975395;28;20467;-83
2023/06/22 07:02:35;;;;;;;10.90;5.97;;;36.00;99.90;;;;;;4974426;28;20427;-84
2023/06/22 07:05:04;;;;;;;16.42;5.50;;;36.30;99.90;;;;;;4974487;28;20408;-84
2023/06/22 07:07:29;;;;;;;14.02;5.57;;;36.60;99.90;;;;;;4973510;28;20434;-81
2023/06/22 07:09:55;;;;;;;10.13;5.10;;;37.10;99.90;;;;;;4972867;28;20785;-81
2023/06/22 07:12:21;;;;;;;10.63;5.20;;;36.70;99.90;;;;;;4954565;28;20389;-81
2023/06/22 07:14:46;;;;;;;12.98;5.07;;;36.40;99.90;;;;;;4955068;28;20412;-81
2023/06/22 07:17:13;;;;;;;11.53;4.70;;;36.90;99.90;;;;;;4971259;28;20487;-82
2023/06/22 07:19:38;;;;;;;12.00;5.85;;;37.30;99.90;;;;;;4971986;28;20426;-82
2023/06/22 07:22:04;;;;;;;10.93;4.80;;;36.90;99.90;;;;;;4971341;28;20408;-83
2023/06/22 07:24:30;;;;;;;10.50;5.00;;;36.20;99.90;;;;;;4971928;28;20726;-83
2023/06/22 07:26:58;;;;;;;10.80;5.00;;;36.70;99.90;;;;;;4954204;28;20404;-83
2023/06/22 07:29:24;;;;;;;12.20;4.53;;;36.40;99.90;;;;;;4971401;28;20947;-83
2023/06/22 07:31:51;;;;;;;10.20;4.30;;;36.70;99.90;;;;;;4970989;28;20396;-83
2023/06/22 07:34:17;;;;;;;10.32;4.25;;;36.30;99.90;;;;;;4971126;28;20390;-83
2023/06/22 07:36:43;;;;;;;9.50;4.40;;;35.80;99.90;;;;;;4971543;28;20400;-83
2023/06/22 07:39:09;;;;;;;10.20;3.90;;;35.60;99.90;;;;;;4971000;28;20392;-84
2023/06/22 07:41:34;;;;;;;10.93;4.30;;;35.70;99.90;;;;;;4972949;28;20411;-83
2023/06/22 07:44:00;;;;;;;13.95;4.97;;;35.80;99.90;;;;;;4976312;28;20431;-83
2023/06/22 07:46:26;;;;;;;9.27;4.33;;;36.30;99.90;;;;;;4972935;28;20404;-83
2023/06/22 07:48:51;;;;;;;9.80;4.40;;;36.50;99.90;;;;;;4955336;28;20467;-83
2023/06/22 07:51:17;;;;;;;10.82;4.50;;;36.40;99.90;;;;;;4973495;28;20389;-83
2023/06/22 07:53:43;;;;;;;10.00;4.07;;;36.30;99.90;;;;;;4955751;28;20829;-83
2023/06/22 07:56:12;;;;;;;9.50;4.60;;;36.70;99.90;;;;;;4971404;28;20424;-83
2023/06/22 07:58:38;;;;;;;11.23;4.50;;;36.90;99.90;;;;;;4971560;28;20858;-84
2023/06/22 08:01:04;;;;;;;10.27;4.60;;;36.80;99.90;;;;;;4971242;28;20439;-83
2023/06/22 08:03:29;;;;;;;9.53;3.97;;;37.30;99.90;;;;;;4971104;28;20424;-83
2023/06/22 08:05:55;;;;;;;8.47;3.90;;;37.70;99.90;;;;;;4971605;28;20400;-83
2023/06/22 08:08:21;;;;;;;12.15;4.80;;;38.00;99.90;;;;;;4953492;28;20407;-84
2023/06/22 08:10:46;;;;;;;11.70;4.60;;;38.70;99.90;;;;;;4970978;28;20797;-84
2023/06/22 08:13:12;;;;;;;10.20;4.07;;;37.00;99.90;;;;;;4972430;28;20848;-84
2023/06/22 08:15:38;;;;;;;12.35;4.40;;;36.20;99.90;;;;;;4953847;28;20396;-84
2023/06/22 08:18:03;;;;;;;11.80;4.43;;;37.00;99.90;;;;;;4955913;28;20785;-83
2023/06/22 08:20:29;;;;;;;10.30;4.50;;;38.40;99.90;;;;;;4970861;28;20726;-84
2023/06/22 08:22:57;;;;;;;14.05;5.43;;;38.20;99.90;;;;;;4971272;28;20424;-84
2023/06/22 08:25:23;;;;;;;9.90;5.20;;;37.20;99.90;;;;;;4971900;28;20396;-84
2023/06/22 08:27:49;;;;;;;9.60;4.53;;;36.50;99.90;;;;;;4970914;28;20410;-84
2023/06/22 08:30:17;;;;;;;12.68;4.35;;;36.60;99.90;;;;;;4984270;28;20412;-84
2023/06/22 08:32:42;;;;;;;11.30;5.60;;;36.10;99.90;;;;;;4976029;28;20726;-83
2023/06/22 08:35:09;;;;;;;10.18;4.45;;;35.40;99.90;;;;;;4972367;28;20392;-83
2023/06/22 08:37:35;;;;;;;9.63;3.97;;;34.50;99.90;;;;;;4974085;28;20407;-83
2023/06/22 08:40:05;;;;;;;9.85;4.43;;;34.00;99.90;;;;;;4975320;28;20427;-83
2023/06/22 08:42:31;;;;;;;10.50;3.60;;;33.60;99.90;;;;;;4987739;28;20414;-83
2023/06/22 08:44:57;;;;;;;9.53;3.70;;;32.90;99.90;;;;;;4975075;28;20816;-83
2023/06/22 08:47:22;;;;;;;11.17;4.27;;;32.00;99.90;;;;;;4972836;28;20392;-83
2023/06/22 08:49:48;;;;;;;11.32;4.20;;;31.50;99.90;;;;;;4975219;28;20400;-83
2023/06/22 08:52:14;;;;;;;11.85;5.13;;;31.30;99.90;;;;;;4976369;28;20430;-83
2023/06/22 08:54:39;;;;;;;11.32;4.40;;;31.20;99.90;;;;;;4973651;28;20400;-83
2023/06/22 08:57:05;;;;;;;11.77;4.50;;;31.20;99.90;;;;;;4972115;28;20396;-83
2023/06/22 08:59:31;;;;;;;11.57;4.20;;;30.90;99.90;;;;;;4955517;28;20407;-83
2023/06/22 09:01:57;;;;;;;9.68;4.30;;;30.80;99.90;;;;;;4974106;28;20964;-82
2023/06/22 09:04:22;;;;;;;11.53;4.70;;;31.10;99.90;;;;;;4971359;28;20442;-83
2023/06/22 09:06:52;;;;;;;10.07;4.33;;;31.30;99.90;;;;;;4970508;28;20408;-83
2023/06/22 09:09:18;;;;;;;13.52;4.47;;;31.90;99.90;;;;;;4971121;28;20384;-84
2023/06/22 09:11:44;;;;;;;11.05;4.05;;;33.00;99.90;;;;;;4971740;28;20408;-84
2023/06/22 09:14:12;;;;;;;10.20;4.35;;;33.50;99.90;;;;;;4974852;28;20439;-83
2023/06/22 09:16:37;;;;;;;9.70;4.30;;;33.60;99.90;;;;;;4975008;28;20494;-83
2023/06/22 09:19:03;;;;;;;13.37;4.00;;;35.00;99.90;;;;;;4973512;28;20880;-83
2023/06/22 09:21:29;;;;;;;11.73;4.60;;;35.80;99.90;;;;;;4974743;28;20391;-83
2023/06/22 09:23:54;;;;;;;11.10;4.60;;;36.10;99.90;;;;;;4975269;28;20424;-83
2023/06/22 09:26:21;;;;;;;11.47;4.60;;;36.00;99.90;;;;;;4976853;28;20395;-83
2023/06/22 09:28:47;;;;;;;11.48;4.53;;;35.60;99.90;;;;;;4975945;28;20821;-83
2023/06/22 09:31:12;;;;;;;12.38;5.43;;;35.10;99.90;;;;;;4977677;28;20420;-83
2023/06/22 09:33:39;;;;;;;10.70;5.20;;;34.70;99.90;;;;;;4977401;28;20411;-83
2023/06/22 09:36:07;;;;;;;12.03;4.70;;;34.40;99.90;;;;;;4976767;28;20999;-83
2023/06/22 09:38:36;;;;;;;10.90;4.97;;;34.90;99.90;;;;;;4975909;28;20967;-83
2023/06/22 09:41:02;;;;;;;10.75;4.57;;;36.40;99.90;;;;;;4975450;28;20788;-83
2023/06/22 09:43:28;;;;;;;10.10;4.47;;;37.40;99.90;;;;;;4972038;28;20522;-83
2023/06/22 09:45:56;;;;;;;9.77;4.07;;;38.40;99.90;;;;;;4960446;28;20441;-83
2023/06/22 09:48:22;;;;;;;12.68;5.85;;;38.80;99.90;;;;;;4960066;28;20775;-83
2023/06/22 09:50:47;;;;;;;10.97;4.37;;;38.70;99.90;;;;;;4967902;28;20418;-83
2023/06/22 09:53:13;;;;;;;13.30;5.20;;;38.50;99.90;;;;;;4966361;28;20930;-83
2023/06/22 09:55:38;;;;;;;10.27;4.30;;;38.90;99.90;;;;;;4966889;28;20461;-83
2023/06/22 09:58:04;;;;;;;10.82;4.70;;;38.80;99.90;;;;;;4981113;28;20392;-83
2023/06/22 10:00:31;;;;;;;13.38;4.85;;;38.70;99.90;;;;;;4972567;28;20412;-83
2023/06/22 10:02:57;;;;;;;13.85;5.10;;;38.40;99.90;;;;;;4954015;29;20438;-83
2023/06/22 10:05:23;;;;;;;14.25;4.80;;;38.10;99.90;;;;;;4956341;29;20460;-83
2023/06/22 10:07:48;;;;;;;14.20;4.60;;;38.40;99.90;;;;;;4954880;29;20464;-83
2023/06/22 10:10:15;;;;;;;11.52;5.20;;;38.80;99.90;;;;;;4968015;28;20396;-83
2023/06/22 10:12:54;;;;;;;15.50;5.90;;;38.20;99.90;;;;;;4972084;28;20400;-83
2023/06/22 10:15:21;;;;;;;11.50;4.60;;;37.70;99.90;;;;;;4955189;29;20413;-83
2023/06/22 10:17:46;;;;;;;13.15;5.75;;;36.90;99.90;;;;;;4952809;29;20789;-83
2023/06/22 10:20:13;;;;;;;11.75;5.20;;;36.20;99.90;;;;;;4920834;29;20410;-83
2023/06/22 10:22:44;;;;;;;10.10;4.75;;;35.70;99.90;;;;;;4954181;29;20436;-83
2023/06/22 10:25:11;;;;;;;12.60;5.40;;;35.00;99.90;;;;;;4958089;28;20405;-83
2023/06/22 10:27:39;;;;;;;12.80;4.50;;;35.00;99.90;;;;;;4946908;28;20425;-83
2023/06/22 10:30:10;;;;;;;9.33;4.07;;;35.00;99.90;;;;;;4954981;29;20425;-83
2023/06/22 10:32:36;;;;;;;9.65;4.70;;;35.00;99.90;;;;;;4955225;29;20401;-83
2023/06/22 10:35:02;;;;;;;12.35;5.13;;;35.20;99.90;;;;;;4955109;29;20472;-83
2023/06/22 10:37:27;;;;;;;12.50;5.10;;;35.70;99.90;;;;;;4957259;29;20506;-83
2023/06/22 10:39:53;;;;;;;14.65;4.70;;;35.60;99.90;;;;;;4953366;29;20401;-83
2023/06/22 10:42:18;;;;;;;9.53;4.53;;;35.20;99.90;;;;;;4953132;29;20426;-84
2023/06/22 10:44:47;;;;;;;9.32;4.50;;;35.30;99.90;;;;;;4953483;29;20882;-83
2023/06/22 10:47:12;;;;;;;10.00;4.70;;;35.60;99.90;;;;;;4953237;29;20406;-83
2023/06/22 10:49:39;;;;;;;12.30;5.00;;;35.30;99.90;;;;;;4934423;28;20404;-83
2023/06/22 10:52:09;;;;;;;10.77;4.80;;;35.10;99.90;;;;;;4957739;28;20405;-83
2023/06/22 10:54:38;;;;;;;11.63;5.37;;;35.20;99.90;;;;;;4952240;29;20397;-83
2023/06/22 10:57:03;;;;;;;13.85;4.60;;;35.20;99.90;;;;;;4935144;29;20403;-83
2023/06/22 10:59:29;;;;;;;13.57;4.97;;;35.10;99.90;;;;;;4934366;29;20459;-84
2023/06/22 11:01:55;;;;;;;12.05;4.80;;;35.10;99.90;;;;;;4933988;29;20471;-83
2023/06/22 11:04:21;;;;;;;15.63;4.70;;;35.00;99.90;;;;;;4933520;29;20825;-83
2023/06/22 11:06:48;;;;;;;20.40;5.00;;;35.00;99.90;;;;;;4915622;29;20396;-83
2023/06/22 11:09:18;;;;;;;12.03;4.90;;;35.40;99.90;;;;;;4933071;29;20458;-83
2023/06/22 11:11:44;;;;;;;11.25;4.65;;;35.60;99.90;;;;;;4916221;29;20399;-83
2023/06/22 11:14:09;;;;;;;9.67;4.40;;;35.40;99.90;;;;;;4940459;29;20415;-83
2023/06/22 11:16:35;;;;;;;10.33;4.23;;;35.40;99.90;;;;;;4956440;29;20541;-82
2023/06/22 11:19:00;;;;;;;10.55;4.30;;;35.50;99.90;;;;;;4941532;28;20911;-83
2023/06/22 11:21:26;;;;;;;10.50;4.60;;;35.60;99.90;;;;;;4938737;28;20401;-83
2023/06/22 11:23:51;;;;;;;12.37;4.37;;;35.80;99.90;;;;;;4986838;28;20423;-83
2023/06/22 11:26:17;;;;;;;14.23;4.25;;;35.90;99.90;;;;;;4976483;28;20395;-83
2023/06/22 11:28:43;;;;;;;11.10;4.50;;;35.80;99.90;;;;;;4975830;28;20434;-84
2023/06/22 11:31:09;;;;;;;8.77;4.37;;;35.90;99.90;;;;;;4961494;28;20410;-83
2023/06/22 11:33:34;;;;;;;10.33;4.60;;;35.70;99.90;;;;;;4933650;29;20418;-81
2023/06/22 11:36:00;;;;;;;12.13;4.90;;;35.40;99.90;;;;;;4920162;28;20500;-82
2023/06/22 11:38:25;;;;;;;13.33;4.73;;;35.10;99.90;;;;;;4948030;28;20408;-82
2023/06/22 11:40:51;;;;;;;10.52;4.38;;;34.50;99.90;;;;;;4947201;29;20406;-82
2023/06/22 11:43:17;;;;;;;14.13;4.40;;;34.30;99.90;;;;;;4960247;28;20424;-82
2023/06/22 11:45:42;;;;;;;13.23;5.10;;;34.30;99.90;;;;;;4938710;29;20413;-82
2023/06/22 11:48:08;;;;;;;13.07;4.97;;;34.40;99.90;;;;;;4956227;29;20460;-82
2023/06/22 11:50:35;;;;;;;10.80;3.90;;;34.60;99.90;;;;;;4956838;28;20421;-83
2023/06/22 11:53:02;;;;;;;11.15;4.65;;;34.70;99.90;;;;;;4953127;29;20542;-82
2023/06/22 11:55:28;;;;;;;11.55;4.60;;;35.00;99.90;;;;;;4951711;29;20454;-82
2023/06/22 11:57:55;;;;;;;11.30;4.23;;;34.90;99.90;;;;;;4933392;29;20403;-82
2023/06/22 12:00:23;;;;;;;12.70;4.90;;;34.70;99.90;;;;;;4941363;29;20397;-82
2023/06/22 12:02:51;;;;;;;14.90;4.45;;;34.70;99.90;;;;;;4953203;29;20401;-81
2023/06/22 12:05:20;;;;;;;14.52;4.78;;;34.70;99.90;;;;;;4950275;28;20904;-84
2023/06/22 12:07:46;;;;;;;11.52;4.47;;;34.50;99.90;;;;;;4944806;28;20898;-82
2023/06/22 12:10:11;;;;;;;12.93;4.70;;;34.20;99.90;;;;;;4964616;28;20394;-83
2023/06/22 12:12:37;;;;;;;10.30;4.57;;;34.00;99.90;;;;;;4957856;29;20418;-82
2023/06/22 12:15:04;;;;;;;12.23;4.80;;;33.70;99.90;;;;;;4940902;29;20426;-83
2023/06/22 12:17:31;;;;;;;12.18;5.03;;;33.60;99.90;;;;;;4958281;28;20501;-83
2023/06/22 12:19:57;;;;;;;12.77;4.63;;;33.50;99.90;;;;;;4927921;29;20408;-82
2023/06/22 12:22:24;;;;;;;14.30;5.40;;;33.40;99.90;;;;;;4922360;29;21378;-82
2023/06/22 12:24:50;;;;;;;11.77;4.70;;;33.50;99.90;;;;;;4957988;29;20437;-83
2023/06/22 12:27:17;;;;;;;12.20;4.38;;;33.70;99.90;;;;;;4964396;29;20401;-82
2023/06/22 12:29:45;;;;;;;11.13;4.50;;;33.60;99.90;;;;;;4959550;29;20475;-82
2023/06/22 12:32:12;;;;;;;12.10;4.22;;;33.30;99.90;;;;;;4964892;29;20433;-82
2023/06/22 12:34:38;;;;;;;10.35;4.40;;;33.20;99.90;;;;;;4969827;29;20421;-82
2023/06/22 12:37:05;;;;;;;11.25;4.80;;;33.10;99.90;;;;;;4936632;29;20551;-83
2023/06/22 12:39:31;;;;;;;10.95;4.50;;;33.20;99.90;;;;;;4965587;29;20420;-82